Time;durP1;ratioP1;P1;durP2;ratioP2;P2;SDS_P1;SDS_P2;PMS_P1;PMS_P2;Temp;Humidity;BMP_temperature;BMP_pressure;BME280_temperature;BME280_humidity;BME280_pressure;Samples;Min_cycle;Max_cycle;Signal;HPM_P1;HPM_P2
2022/06/06 00:01:56;;;;;;;3.07;1.70;;;15.80;99.90;;;;;;5066967;28;20806;-65
2022/06/06 00:04:24;;;;;;;3.73;2.17;;;15.80;99.90;;;;;;5054160;28;20437;-64
2022/06/06 00:06:53;;;;;;;3.57;2.40;;;15.70;99.90;;;;;;5053224;28;20997;-65
2022/06/06 00:09:20;;;;;;;5.23;2.20;;;15.70;99.90;;;;;;5054298;28;20945;-65
2022/06/06 00:11:48;;;;;;;3.10;1.97;;;15.80;99.90;;;;;;5061189;28;20497;-66
2022/06/06 00:14:17;;;;;;;5.20;2.17;;;15.80;99.90;;;;;;5073654;28;20425;-65
2022/06/06 00:16:45;;;;;;;4.20;2.70;;;15.80;99.90;;;;;;5055995;28;20801;-65
2022/06/06 00:19:13;;;;;;;4.00;1.63;;;15.70;99.90;;;;;;5054170;28;20571;-65
2022/06/06 00:21:42;;;;;;;4.87;2.03;;;15.70;99.90;;;;;;5068800;28;20762;-65
2022/06/06 00:24:10;;;;;;;4.87;1.83;;;15.60;99.90;;;;;;5073752;28;20452;-64
2022/06/06 00:26:37;;;;;;;2.73;1.83;;;15.50;99.90;;;;;;5058372;28;20494;-64
2022/06/06 00:29:05;;;;;;;7.20;2.27;;;15.30;99.80;;;;;;5053868;28;20464;-64
2022/06/06 00:37:06;;;;;;;5.40;2.03;;;15.20;99.90;;;;;;5052594;28;20444;-65
2022/06/06 00:39:34;;;;;;;2.57;1.87;;;15.20;99.90;;;;;;5053608;28;20564;-65
2022/06/06 00:42:01;;;;;;;5.93;2.27;;;15.10;99.90;;;;;;5072419;28;20474;-64
2022/06/06 00:44:31;;;;;;;4.80;1.70;;;15.00;99.90;;;;;;5073574;28;20472;-65
2022/06/06 00:47:04;;;;;;;4.43;2.00;;;15.00;99.90;;;;;;5054119;28;20445;-65
2022/06/06 00:49:36;;;;;;;4.20;2.63;;;15.00;99.90;;;;;;5053586;28;20919;-66
2022/06/06 00:52:09;;;;;;;4.17;2.27;;;15.00;99.80;;;;;;5070994;28;20432;-64
2022/06/06 00:54:36;;;;;;;9.13;2.07;;;15.00;99.90;;;;;;5073570;28;20464;-64
2022/06/06 00:57:06;;;;;;;3.20;1.90;;;14.90;99.90;;;;;;5054017;28;20887;-64
2022/06/06 00:59:37;;;;;;;5.87;2.10;;;14.90;99.90;;;;;;5053301;28;20572;-65
2022/06/06 01:02:06;;;;;;;3.40;1.93;;;14.90;99.90;;;;;;5069875;28;20432;-65
2022/06/06 01:04:34;;;;;;;2.70;1.73;;;14.90;99.90;;;;;;5073221;28;20436;-64
2022/06/06 01:07:02;;;;;;;3.47;2.17;;;14.90;99.90;;;;;;5055389;28;20511;-65
2022/06/06 01:09:29;;;;;;;3.97;2.20;;;15.00;99.90;;;;;;5053105;28;20506;-64
2022/06/06 01:12:00;;;;;;;5.53;2.00;;;15.00;99.90;;;;;;5068142;28;20833;-65
2022/06/06 01:14:36;;;;;;;4.33;1.53;;;15.00;99.90;;;;;;5073266;28;20440;-64
2022/06/06 01:17:07;;;;;;;3.60;1.40;;;15.00;99.90;;;;;;5056175;28;20446;-65
2022/06/06 01:19:59;;;;;;;3.10;1.63;;;15.00;99.90;;;;;;5053082;28;20503;-65
2022/06/06 01:22:51;;;;;;;2.50;2.00;;;15.00;99.90;;;;;;5070620;28;20439;-64
2022/06/06 01:25:37;;;;;;;2.67;1.50;;;14.80;99.90;;;;;;5071339;28;20527;-69
2022/06/06 01:28:09;;;;;;;3.73;1.80;;;14.90;99.90;;;;;;5053002;28;20444;-65
2022/06/06 01:30:43;;;;;;;7.53;1.77;;;14.80;99.90;;;;;;5052244;28;20445;-64
2022/06/06 01:33:12;;;;;;;4.20;2.33;;;14.80;99.90;;;;;;5052760;28;20433;-64
2022/06/06 01:35:41;;;;;;;3.73;2.30;;;14.70;99.90;;;;;;5056053;28;20435;-64
2022/06/06 01:38:10;;;;;;;4.20;2.30;;;14.60;99.90;;;;;;5072450;28;20490;-65
2022/06/06 01:40:43;;;;;;;4.00;2.37;;;14.60;99.90;;;;;;5068211;28;20966;-65
2022/06/06 01:43:14;;;;;;;3.37;2.00;;;14.60;99.90;;;;;;5052699;28;20445;-64
2022/06/06 01:45:46;;;;;;;3.87;2.33;;;14.50;99.90;;;;;;5054944;28;20473;-65
2022/06/06 01:48:17;;;;;;;5.43;2.20;;;14.50;99.90;;;;;;5072517;28;20440;-65
2022/06/06 01:50:45;;;;;;;7.70;2.60;;;14.50;99.90;;;;;;5068357;28;20447;-64
2022/06/06 01:53:15;;;;;;;2.80;2.00;;;14.50;99.90;;;;;;5051976;28;20471;-64
2022/06/06 01:55:46;;;;;;;5.20;2.17;;;14.50;99.90;;;;;;5054042;28;20453;-65
2022/06/06 01:58:16;;;;;;;2.90;1.83;;;14.50;99.90;;;;;;5069256;28;20475;-64
2022/06/06 02:00:44;;;;;;;3.20;1.90;;;14.50;99.90;;;;;;5068924;28;20432;-64
2022/06/06 02:03:11;;;;;;;4.33;2.43;;;14.40;99.90;;;;;;5052232;28;20445;-64
2022/06/06 02:05:38;;;;;;;3.27;2.40;;;14.40;99.90;;;;;;5052302;28;20440;-64
2022/06/06 02:08:05;;;;;;;4.27;2.07;;;14.40;99.90;;;;;;5071987;28;20540;-64
2022/06/06 02:10:33;;;;;;;4.10;2.80;;;14.30;99.90;;;;;;5072038;28;20444;-68
2022/06/06 02:12:59;;;;;;;3.47;2.00;;;14.30;99.90;;;;;;5071130;28;20436;-64
2022/06/06 02:15:27;;;;;;;2.57;2.03;;;14.30;99.90;;;;;;5072059;28;20442;-65
2022/06/06 02:17:57;;;;;;;3.43;2.00;;;14.20;99.90;;;;;;5052500;28;20437;-64
2022/06/06 02:20:26;;;;;;;3.67;1.67;;;14.20;99.90;;;;;;5052317;28;20444;-65
2022/06/06 02:22:53;;;;;;;5.47;1.80;;;14.20;99.90;;;;;;5069277;28;20436;-64
2022/06/06 02:25:21;;;;;;;2.40;1.67;;;14.20;99.90;;;;;;5072193;28;20428;-65
2022/06/06 02:27:48;;;;;;;2.60;1.70;;;14.20;99.90;;;;;;5072063;28;20466;-65
2022/06/06 02:30:19;;;;;;;4.27;1.80;;;14.20;99.90;;;;;;5068618;28;20526;-67
2022/06/06 02:32:46;;;;;;;4.70;1.87;;;14.20;99.90;;;;;;5072371;28;20444;-64
2022/06/06 02:35:17;;;;;;;5.67;3.03;;;14.20;99.90;;;;;;5070540;28;20863;-64
2022/06/06 02:37:45;;;;;;;3.17;1.90;;;14.10;99.90;;;;;;5056232;28;20463;-64
2022/06/06 02:40:15;;;;;;;3.00;1.87;;;14.00;99.90;;;;;;5055160;28;20491;-69
2022/06/06 02:42:42;;;;;;;6.40;1.73;;;13.90;99.90;;;;;;5075307;28;20460;-65
2022/06/06 02:45:10;;;;;;;2.60;1.60;;;13.90;99.90;;;;;;5075831;28;20436;-64
2022/06/06 02:47:38;;;;;;;5.17;2.40;;;13.80;99.90;;;;;;5055429;28;20445;-65
2022/06/06 02:50:06;;;;;;;3.43;2.10;;;13.80;99.90;;;;;;5055725;28;20863;-64
2022/06/06 02:52:35;;;;;;;4.90;2.37;;;13.70;99.90;;;;;;5073093;28;20446;-64
2022/06/06 02:55:02;;;;;;;2.90;1.87;;;13.60;99.90;;;;;;5075843;28;20529;-64
2022/06/06 02:57:29;;;;;;;4.00;2.67;;;13.60;99.90;;;;;;5056152;28;20425;-64
2022/06/06 03:00:00;;;;;;;6.10;3.20;;;13.50;99.90;;;;;;5054631;28;20476;-64
2022/06/06 03:02:27;;;;;;;6.73;2.60;;;13.60;99.90;;;;;;5055046;28;20916;-64
2022/06/06 03:04:54;;;;;;;3.60;2.67;;;13.60;99.90;;;;;;5055802;28;20437;-64
2022/06/06 03:07:29;;;;;;;5.33;2.33;;;13.60;99.90;;;;;;5068346;28;20438;-65
2022/06/06 03:10:11;;;;;;;5.67;2.80;;;13.60;99.90;;;;;;5075361;28;20523;-64
2022/06/06 03:13:01;;;;;;;6.37;2.47;;;13.60;99.90;;;;;;5059232;28;20480;-64
2022/06/06 03:21:45;;;;;;;3.80;2.67;;;13.70;99.90;;;;;;5042501;28;20510;-64
2022/06/06 03:24:31;;;;;;;3.27;1.63;;;13.70;99.90;;;;;;5075554;28;20454;-64
2022/06/06 03:27:16;;;;;;;5.13;2.70;;;13.70;99.90;;;;;;5075563;28;20523;-64
2022/06/06 03:29:59;;;;;;;5.17;2.20;;;13.70;99.90;;;;;;5071081;28;20511;-64
2022/06/06 03:32:38;;;;;;;5.87;1.90;;;13.70;99.90;;;;;;5054849;28;20413;-64
2022/06/06 03:35:20;;;;;;;3.57;2.33;;;13.80;99.90;;;;;;5059651;28;20439;-64
2022/06/06 03:37:55;;;;;;;3.87;2.07;;;13.80;99.90;;;;;;5074855;28;20527;-65
2022/06/06 03:40:31;;;;;;;3.13;2.03;;;13.80;99.90;;;;;;5066550;28;20994;-64
2022/06/06 03:43:07;;;;;;;2.90;2.17;;;13.80;99.90;;;;;;5054977;28;20498;-64
2022/06/06 03:45:39;;;;;;;4.70;2.00;;;13.80;99.90;;;;;;5062037;28;20788;-64
2022/06/06 03:48:18;;;;;;;4.30;2.60;;;13.80;99.90;;;;;;5074615;28;20447;-64
2022/06/06 03:50:50;;;;;;;4.13;2.07;;;13.80;99.90;;;;;;5064836;28;20527;-64
2022/06/06 03:53:23;;;;;;;3.30;2.30;;;13.70;99.90;;;;;;5061979;28;20546;-64
2022/06/06 03:56:03;;;;;;;4.83;2.80;;;13.80;99.90;;;;;;5073964;28;20436;-66
2022/06/06 03:58:33;;;;;;;3.63;1.87;;;13.80;99.90;;;;;;5063992;28;20448;-64
2022/06/06 04:01:05;;;;;;;5.87;2.20;;;13.80;99.90;;;;;;5054583;28;20437;-64
2022/06/06 04:03:34;;;;;;;4.00;2.00;;;13.80;99.90;;;;;;5062931;28;20476;-64
2022/06/06 04:06:03;;;;;;;5.80;2.10;;;13.90;99.90;;;;;;5074515;28;20444;-64
2022/06/06 04:08:32;;;;;;;2.40;1.60;;;14.00;99.90;;;;;;5065797;28;20483;-64
2022/06/06 04:11:12;;;;;;;3.57;1.97;;;14.00;99.90;;;;;;5054613;28;20436;-64
2022/06/06 04:13:54;;;;;;;3.20;2.00;;;14.10;99.90;;;;;;5062367;28;20536;-64
2022/06/06 04:16:29;;;;;;;4.23;1.90;;;14.10;99.90;;;;;;5056211;28;21007;-64
2022/06/06 04:19:05;;;;;;;3.50;1.83;;;14.10;99.90;;;;;;5064880;28;20471;-64
2022/06/06 04:21:40;;;;;;;8.80;2.40;;;14.20;99.90;;;;;;5053338;28;20518;-64
2022/06/06 04:24:25;;;;;;;3.33;1.80;;;14.20;99.90;;;;;;5061850;28;20435;-64
2022/06/06 04:27:04;;;;;;;4.70;2.20;;;14.20;99.90;;;;;;5073624;28;20933;-65
2022/06/06 04:29:39;;;;;;;6.57;4.37;;;14.30;99.90;;;;;;5054939;28;21010;-65
2022/06/06 04:32:14;;;;;;;4.70;3.60;;;14.30;99.90;;;;;;5053635;28;20916;-64
2022/06/06 04:34:49;;;;;;;4.07;2.60;;;14.40;99.90;;;;;;5054265;28;20891;-64
2022/06/06 04:37:23;;;;;;;4.43;2.47;;;14.40;99.90;;;;;;5066814;28;20447;-65
2022/06/06 04:39:59;;;;;;;3.70;2.10;;;14.50;99.90;;;;;;5074084;28;20484;-64
2022/06/06 04:42:35;;;;;;;3.53;2.20;;;14.50;99.90;;;;;;5057956;28;20527;-64
2022/06/06 04:45:10;;;;;;;4.70;3.03;;;14.60;99.90;;;;;;5053906;28;20436;-64
2022/06/06 04:47:40;;;;;;;3.90;2.33;;;14.70;99.90;;;;;;5068626;28;20444;-64
2022/06/06 04:50:09;;;;;;;3.27;2.20;;;14.80;99.90;;;;;;5074219;28;20439;-64
2022/06/06 04:52:39;;;;;;;3.70;2.37;;;14.90;99.90;;;;;;5056928;28;20445;-65
2022/06/06 04:55:08;;;;;;;2.80;2.27;;;14.90;99.90;;;;;;5053702;28;20433;-64
2022/06/06 04:57:37;;;;;;;7.00;3.00;;;14.90;99.90;;;;;;5066969;28;20432;-65
2022/06/06 05:00:08;;;;;;;3.67;2.20;;;15.00;99.90;;;;;;5073163;28;20479;-65
2022/06/06 05:02:36;;;;;;;3.20;1.90;;;15.10;99.90;;;;;;5058646;28;20928;-65
2022/06/06 05:05:05;;;;;;;4.43;2.10;;;15.20;99.90;;;;;;5053513;28;20472;-65
2022/06/06 05:07:54;;;;;;;3.93;2.70;;;15.20;99.90;;;;;;5065622;28;20474;-68
2022/06/06 05:10:44;;;;;;;3.67;2.50;;;15.30;99.90;;;;;;5058033;28;20439;-65
2022/06/06 05:13:40;;;;;;;3.60;2.50;;;15.40;99.90;;;;;;5053282;28;20439;-64
2022/06/06 05:16:26;;;;;;;5.33;2.30;;;15.50;99.90;;;;;;5053387;28;21031;-65
2022/06/06 05:19:16;;;;;;;8.00;2.70;;;15.60;99.90;;;;;;5053095;28;20440;-65
2022/06/06 05:21:59;;;;;;;4.30;1.93;;;15.60;99.90;;;;;;5073063;28;20530;-64
2022/06/06 05:24:41;;;;;;;2.50;1.83;;;15.70;99.90;;;;;;5071873;28;20515;-64
2022/06/06 05:27:36;;;;;;;3.70;2.00;;;15.80;99.90;;;;;;5072765;28;20468;-64
2022/06/06 05:30:08;;;;;;;3.30;2.43;;;15.80;99.90;;;;;;5062324;28;20516;-64
2022/06/06 05:32:58;;;;;;;3.00;2.10;;;15.90;99.90;;;;;;5052858;28;20528;-65
2022/06/06 05:36:00;;;;;;;2.90;2.03;;;16.00;99.90;;;;;;5063753;28;20434;-66
2022/06/06 05:38:45;;;;;;;6.50;2.03;;;16.00;99.90;;;;;;5058200;28;20843;-65
2022/06/06 05:41:22;;;;;;;2.93;1.80;;;16.00;99.90;;;;;;5052821;28;21073;-64
2022/06/06 05:43:57;;;;;;;2.80;2.00;;;16.10;99.90;;;;;;5068225;28;20523;-66
2022/06/06 05:46:36;;;;;;;6.17;2.13;;;16.20;99.90;;;;;;5068151;28;20447;-64
2022/06/06 05:49:22;;;;;;;2.40;1.63;;;16.30;99.90;;;;;;5053882;28;20914;-64
2022/06/06 05:52:03;;;;;;;3.70;2.27;;;16.30;99.90;;;;;;5056434;28;20985;-65
2022/06/06 05:54:58;;;;;;;4.60;2.87;;;16.40;99.90;;;;;;5067847;28;20478;-65
2022/06/06 05:57:51;;;;;;;3.77;1.70;;;16.50;99.90;;;;;;5072113;28;20468;-65
2022/06/06 06:00:21;;;;;;;3.17;2.00;;;16.60;99.90;;;;;;5070705;28;20879;-66
2022/06/06 06:03:12;;;;;;;3.90;2.50;;;16.70;99.90;;;;;;5052458;28;20516;-65
2022/06/06 06:05:56;;;;;;;4.83;3.13;;;16.80;99.90;;;;;;5057654;28;20767;-64
2022/06/06 06:08:36;;;;;;;2.60;1.97;;;16.90;99.90;;;;;;5072769;28;20438;-65
2022/06/06 06:11:14;;;;;;;3.03;1.60;;;17.10;99.90;;;;;;5067813;28;20526;-64
2022/06/06 06:13:56;;;;;;;3.80;2.43;;;17.20;99.90;;;;;;5072191;28;20439;-65
2022/06/06 06:16:27;;;;;;;3.60;2.40;;;17.20;99.90;;;;;;5070899;28;20468;-65
2022/06/06 06:19:00;;;;;;;2.77;1.60;;;17.30;99.90;;;;;;5072300;28;20448;-65
2022/06/06 06:21:30;;;;;;;4.77;2.20;;;17.40;99.90;;;;;;5056842;28;20454;-65
2022/06/06 06:24:03;;;;;;;2.40;1.67;;;17.40;99.90;;;;;;5052100;28;20444;-64
2022/06/06 06:26:31;;;;;;;2.73;1.67;;;17.50;99.90;;;;;;5066556;28;20436;-64
2022/06/06 06:29:01;;;;;;;3.67;1.70;;;17.50;99.90;;;;;;5063123;28;20498;-66
2022/06/06 06:31:48;;;;;;;3.97;2.70;;;17.60;99.90;;;;;;5052162;28;20445;-65
2022/06/06 06:34:28;;;;;;;2.60;1.60;;;17.70;99.30;;;;;;5051485;28;20527;-65
2022/06/06 06:37:10;;;;;;;4.80;2.10;;;17.80;99.30;;;;;;5051970;28;20787;-66
2022/06/06 06:39:55;;;;;;;2.90;1.73;;;18.00;99.10;;;;;;5064909;28;20510;-66
2022/06/06 06:42:35;;;;;;;6.97;2.03;;;18.00;99.50;;;;;;5072310;28;20546;-65
2022/06/06 06:45:07;;;;;;;2.70;1.60;;;18.10;99.60;;;;;;5054246;28;20439;-65
2022/06/06 06:47:36;;;;;;;2.67;1.77;;;18.30;99.60;;;;;;5052074;28;20443;-65
2022/06/06 06:50:10;;;;;;;4.23;1.90;;;18.40;98.50;;;;;;5066949;28;20440;-70
2022/06/06 06:52:54;;;;;;;3.93;2.00;;;18.50;98.20;;;;;;5070938;28;20873;-66
2022/06/06 06:55:32;;;;;;;3.37;1.70;;;18.60;97.70;;;;;;5053225;28;20430;-65
2022/06/06 06:58:24;;;;;;;2.80;1.80;;;18.70;97.20;;;;;;5072037;28;20450;-65
2022/06/06 07:00:56;;;;;;;3.60;2.00;;;18.90;97.30;;;;;;5070855;28;20479;-65
2022/06/06 07:09:54;;;;;;;4.67;1.87;;;19.50;95.10;;;;;;5056812;28;20798;-65
2022/06/06 07:12:34;;;;;;;5.17;3.20;;;19.70;95.80;;;;;;5071406;28;21048;-65
2022/06/06 07:15:17;;;;;;;3.87;2.03;;;19.80;95.80;;;;;;5057375;28;20432;-65
2022/06/06 07:17:47;;;;;;;3.50;1.90;;;19.90;95.30;;;;;;5051784;28;20444;-65
2022/06/06 07:20:17;;;;;;;3.23;1.60;;;20.00;95.10;;;;;;5065600;28;20471;-65
2022/06/06 07:23:02;;;;;;;3.30;2.40;;;20.10;95.70;;;;;;5074178;28;20432;-66
2022/06/06 07:25:36;;;;;;;3.77;1.70;;;20.20;94.80;;;;;;5059155;28;20436;-66
2022/06/06 07:28:04;;;;;;;3.17;2.40;;;20.20;94.20;;;;;;5066357;28;20442;-64
2022/06/06 07:30:35;;;;;;;2.77;2.00;;;20.30;94.30;;;;;;5075392;28;20432;-65
2022/06/06 07:33:29;;;;;;;3.50;2.13;;;20.40;94.50;;;;;;5062472;28;20984;-65
2022/06/06 07:36:07;;;;;;;3.30;2.30;;;20.50;95.40;;;;;;5051827;28;20449;-65
2022/06/06 07:38:46;;;;;;;3.20;2.30;;;20.70;95.50;;;;;;5069251;28;20526;-66
2022/06/06 07:41:28;;;;;;;4.03;2.03;;;20.90;95.80;;;;;;5074111;28;20890;-65
2022/06/06 07:44:21;;;;;;;3.70;1.97;;;21.00;95.80;;;;;;5074378;28;20509;-67
2022/06/06 07:47:03;;;;;;;3.40;2.20;;;21.10;94.20;;;;;;5074299;28;20432;-67
2022/06/06 07:49:41;;;;;;;3.20;2.20;;;21.20;93.70;;;;;;5059121;28;20442;-65
2022/06/06 07:52:21;;;;;;;2.70;2.10;;;21.30;93.60;;;;;;5072202;28;20501;-65
2022/06/06 07:54:59;;;;;;;3.13;2.17;;;21.40;94.30;;;;;;5054336;28;20507;-65
2022/06/06 07:57:38;;;;;;;5.83;2.20;;;21.50;93.60;;;;;;5054073;28;20782;-65
2022/06/06 08:00:08;;;;;;;3.93;2.23;;;21.70;93.10;;;;;;5058033;28;20977;-65
2022/06/06 08:02:56;;;;;;;5.60;2.07;;;21.80;92.80;;;;;;5069077;28;20493;-65
2022/06/06 08:05:41;;;;;;;2.77;1.50;;;22.20;93.60;;;;;;5067550;28;20448;-66
2022/06/06 08:08:17;;;;;;;6.23;2.33;;;22.60;93.60;;;;;;5070756;28;20440;-65
2022/06/06 08:10:46;;;;;;;2.80;1.87;;;22.80;92.10;;;;;;5068843;28;21492;-65
2022/06/06 08:13:27;;;;;;;3.43;2.00;;;23.00;90.10;;;;;;5065106;28;20490;-65
2022/06/06 08:16:21;;;;;;;3.60;1.70;;;23.20;88.00;;;;;;5069044;28;20442;-66
2022/06/06 08:19:22;;;;;;;5.00;2.03;;;23.30;85.60;;;;;;5070761;28;20440;-66
2022/06/06 08:21:51;;;;;;;3.90;2.73;;;23.40;85.40;;;;;;5071723;28;20469;-66
2022/06/06 08:24:25;;;;;;;5.00;2.70;;;23.50;84.10;;;;;;5071664;28;20447;-65
2022/06/06 08:26:54;;;;;;;4.97;2.27;;;23.60;82.70;;;;;;5071419;28;20459;-67
2022/06/06 08:29:23;;;;;;;4.87;2.33;;;23.60;81.30;;;;;;5068204;28;20866;-65
2022/06/06 08:31:50;;;;;;;3.53;1.83;;;23.60;79.60;;;;;;5070464;28;20944;-65
2022/06/06 08:34:17;;;;;;;3.30;1.97;;;23.50;76.80;;;;;;5069688;28;20480;-65
2022/06/06 08:37:01;;;;;;;4.20;2.17;;;23.60;69.10;;;;;;5071166;28;20479;-66
2022/06/06 08:39:41;;;;;;;3.50;2.13;;;23.50;72.10;;;;;;5070974;28;20447;-65
2022/06/06 08:42:30;;;;;;;2.70;1.80;;;23.60;74.20;;;;;;5070179;28;20528;-65
2022/06/06 08:45:15;;;;;;;3.83;2.03;;;23.70;74.50;;;;;;5071733;28;20940;-66
2022/06/06 08:47:56;;;;;;;4.07;2.27;;;23.90;69.70;;;;;;5064817;28;20435;-65
2022/06/06 08:50:48;;;;;;;3.27;1.93;;;24.00;70.40;;;;;;5066309;28;20449;-65
2022/06/06 08:53:56;;;;;;;3.80;1.97;;;24.20;72.90;;;;;;5070778;28;20490;-65
2022/06/06 08:56:38;;;;;;;3.00;2.27;;;24.60;73.70;;;;;;5064323;28;20446;-66
2022/06/06 08:59:38;;;;;;;3.13;2.10;;;24.90;71.20;;;;;;5068463;28;20450;-66
2022/06/06 09:02:39;;;;;;;3.30;2.17;;;25.10;65.80;;;;;;5067852;28;20494;-66
2022/06/06 09:05:29;;;;;;;3.30;2.00;;;25.20;66.70;;;;;;5065542;28;20462;-65
2022/06/06 09:08:32;;;;;;;7.53;2.33;;;25.30;66.30;;;;;;5055991;28;20997;-66
2022/06/06 09:11:38;;;;;;;2.93;1.80;;;25.50;65.00;;;;;;5069262;28;20481;-67
2022/06/06 09:14:29;;;;;;;7.27;2.93;;;25.40;61.10;;;;;;5040924;28;20479;-65
2022/06/06 09:17:47;;;;;;;2.90;1.67;;;25.30;64.50;;;;;;5068112;28;20838;-66
2022/06/06 09:20:43;;;;;;;6.60;2.93;;;25.60;67.20;;;;;;5063550;28;20487;-70
2022/06/06 09:23:40;;;;;;;2.67;1.83;;;25.90;64.70;;;;;;5070731;28;20514;-66
2022/06/06 09:26:34;;;;;;;2.67;1.70;;;26.10;64.50;;;;;;5066484;28;20475;-67
2022/06/06 09:29:38;;;;;;;3.27;2.23;;;26.20;63.50;;;;;;5070962;28;20440;-65
2022/06/06 09:32:59;;;;;;;3.67;2.17;;;26.30;62.60;;;;;;5069424;28;20442;-66
2022/06/06 09:35:53;;;;;;;6.53;2.43;;;26.30;61.30;;;;;;5070417;28;20493;-66
2022/06/06 09:38:34;;;;;;;3.47;2.33;;;26.30;61.30;;;;;;5063546;28;20484;-66
2022/06/06 09:41:28;;;;;;;4.67;2.17;;;26.30;60.10;;;;;;5066076;28;20486;-65
2022/06/06 09:43:58;;;;;;;4.97;1.90;;;26.30;60.70;;;;;;5066882;28;20930;-66
2022/06/06 09:47:15;;;;;;;4.90;2.30;;;26.30;60.30;;;;;;5069649;28;20432;-66
2022/06/06 09:50:09;;;;;;;4.37;1.90;;;26.30;60.20;;;;;;5065936;28;20440;-71
2022/06/06 09:53:07;;;;;;;3.37;2.17;;;26.30;59.90;;;;;;5063728;28;20523;-65
2022/06/06 09:59:42;;;;;;;3.00;2.20;;;26.40;60.00;;;;;;5064600;28;20466;-66
2022/06/06 10:02:46;;;;;;;4.97;2.00;;;26.50;57.80;;;;;;5069040;28;20475;-66
2022/06/06 10:05:58;;;;;;;2.70;2.00;;;26.50;59.10;;;;;;5067395;28;20934;-65
2022/06/06 10:08:59;;;;;;;2.60;1.80;;;26.50;59.80;;;;;;5069194;28;20945;-66
2022/06/06 10:12:04;;;;;;;2.63;1.90;;;26.50;57.20;;;;;;5064627;28;20978;-66
2022/06/06 10:14:51;;;;;;;3.30;1.93;;;26.20;57.60;;;;;;5067367;28;20439;-66
2022/06/06 10:17:48;;;;;;;3.23;2.10;;;26.20;60.70;;;;;;5065940;28;20447;-65
2022/06/06 10:20:27;;;;;;;2.80;2.00;;;26.10;59.90;;;;;;5060029;28;20435;-66
2022/06/06 10:23:27;;;;;;;2.87;2.17;;;26.10;59.10;;;;;;5069453;28;20922;-67
2022/06/06 10:26:12;;;;;;;4.00;2.40;;;26.10;59.10;;;;;;5022848;28;20841;-65
2022/06/06 10:28:53;;;;;;;2.97;2.10;;;26.10;60.50;;;;;;5065112;28;20440;-66
2022/06/06 10:31:45;;;;;;;4.60;2.37;;;26.10;61.20;;;;;;5069906;28;20440;-66
2022/06/06 10:34:40;;;;;;;2.90;1.67;;;26.10;60.90;;;;;;5067494;28;20436;-65
2022/06/06 10:37:36;;;;;;;3.47;2.40;;;26.20;61.50;;;;;;5065088;28;20497;-65
2022/06/06 10:40:23;;;;;;;2.60;1.87;;;26.40;61.90;;;;;;5066789;28;20439;-65
2022/06/06 10:43:14;;;;;;;2.83;1.93;;;26.70;63.00;;;;;;5068034;28;21160;-66
2022/06/06 10:45:48;;;;;;;2.80;2.00;;;26.90;62.80;;;;;;5065911;28;20448;-66
2022/06/06 10:48:52;;;;;;;4.97;2.63;;;26.90;60.20;;;;;;5067395;28;20446;-70
2022/06/06 10:51:57;;;;;;;4.57;2.47;;;26.90;60.70;;;;;;5063873;28;20448;-66
2022/06/06 10:55:03;;;;;;;3.47;2.10;;;27.10;59.90;;;;;;5057108;28;20482;-66
2022/06/06 10:58:22;;;;;;;2.93;2.00;;;27.30;59.10;;;;;;5071297;28;20441;-66
2022/06/06 11:01:19;;;;;;;5.23;2.43;;;27.40;58.30;;;;;;5072887;28;20563;-65
2022/06/06 11:04:12;;;;;;;5.53;2.27;;;27.60;57.50;;;;;;5060154;28;21054;-67
2022/06/06 11:07:01;;;;;;;4.30;2.33;;;27.60;55.20;;;;;;5070458;28;20435;-66
2022/06/06 11:09:58;;;;;;;6.70;2.60;;;27.70;55.80;;;;;;5062856;28;21011;-66
2022/06/06 11:13:11;;;;;;;4.17;2.30;;;27.70;54.30;;;;;;5053175;28;20547;-68
2022/06/06 11:15:45;;;;;;;3.67;1.90;;;27.80;55.40;;;;;;5057775;28;20944;-65
2022/06/06 11:18:42;;;;;;;3.53;2.20;;;27.90;56.10;;;;;;5059697;28;20451;-67
2022/06/06 11:21:50;;;;;;;8.37;2.00;;;28.00;54.40;;;;;;5061778;28;21027;-65
2022/06/06 11:24:27;;;;;;;4.43;2.40;;;28.10;55.10;;;;;;5063671;28;20428;-66
2022/06/06 11:27:21;;;;;;;2.90;2.30;;;28.10;55.00;;;;;;5062994;28;20509;-67
2022/06/06 11:30:04;;;;;;;2.60;2.03;;;28.10;53.60;;;;;;5064737;28;20441;-66
2022/06/06 11:33:04;;;;;;;3.40;1.87;;;28.00;53.50;;;;;;5063178;28;20436;-65
2022/06/06 11:35:41;;;;;;;4.27;2.03;;;27.90;50.60;;;;;;5065045;28;20832;-70
2022/06/06 11:38:45;;;;;;;4.50;2.00;;;27.70;50.50;;;;;;5064162;28;20839;-70
2022/06/06 11:41:35;;;;;;;3.27;2.30;;;27.40;50.40;;;;;;5063581;28;20509;-67
2022/06/06 11:44:40;;;;;;;3.97;3.23;;;27.40;52.60;;;;;;5067069;28;20447;-65
2022/06/06 11:47:51;;;;;;;4.50;2.57;;;27.30;52.10;;;;;;5060623;28;20542;-66
2022/06/06 11:50:56;;;;;;;3.63;2.77;;;27.00;51.00;;;;;;5064516;28;20486;-65
2022/06/06 11:54:13;;;;;;;4.13;2.50;;;26.90;54.20;;;;;;5065844;28;20480;-66
2022/06/06 11:57:09;;;;;;;3.50;1.80;;;27.10;56.90;;;;;;5065507;28;20456;-70
2022/06/06 12:00:13;;;;;;;3.60;2.37;;;27.40;57.00;;;;;;5062000;28;20787;-65
2022/06/06 12:03:25;;;;;;;6.77;2.00;;;27.70;56.70;;;;;;5063640;28;20509;-65
2022/06/06 12:06:23;;;;;;;3.93;2.13;;;27.90;54.60;;;;;;5063670;28;20432;-67
2022/06/06 12:09:03;;;;;;;3.97;2.63;;;28.20;52.90;;;;;;5038664;28;20439;-67
2022/06/06 12:12:06;;;;;;;3.70;2.40;;;28.40;54.30;;;;;;5064333;28;20562;-65
2022/06/06 12:15:18;;;;;;;4.57;2.07;;;28.70;53.90;;;;;;5063597;28;20527;-65
2022/06/06 12:17:59;;;;;;;5.20;2.27;;;28.90;53.30;;;;;;5068650;28;20443;-65
2022/06/06 12:20:59;;;;;;;4.20;2.70;;;29.10;51.20;;;;;;5067239;28;20918;-66
2022/06/06 12:23:44;;;;;;;3.50;1.90;;;29.20;50.80;;;;;;5060200;28;20538;-66
2022/06/06 12:26:31;;;;;;;4.00;2.00;;;29.30;51.10;;;;;;5061282;28;20532;-67
2022/06/06 12:29:48;;;;;;;3.30;2.40;;;29.20;51.20;;;;;;5066040;28;20449;-66
2022/06/06 12:32:42;;;;;;;3.70;2.63;;;29.00;50.50;;;;;;4982094;28;20534;-66
2022/06/06 12:35:16;;;;;;;4.40;2.30;;;29.00;51.20;;;;;;4975524;28;20436;-66
2022/06/06 12:37:52;;;;;;;3.20;2.43;;;29.00;52.60;;;;;;5043846;28;20436;-65
2022/06/06 12:40:32;;;;;;;3.30;2.83;;;28.90;51.90;;;;;;5064308;28;20497;-65
2022/06/06 12:43:11;;;;;;;4.73;2.70;;;28.80;51.30;;;;;;5064319;28;20521;-67
2022/06/06 12:45:50;;;;;;;3.70;2.23;;;28.60;51.30;;;;;;5060157;28;20497;-65
2022/06/06 12:48:50;;;;;;;2.70;2.10;;;28.40;50.90;;;;;;5063873;28;20547;-65
2022/06/06 12:51:27;;;;;;;4.77;2.63;;;28.30;51.80;;;;;;5063302;28;20462;-65
2022/06/06 12:54:30;;;;;;;4.47;2.67;;;28.30;53.00;;;;;;5065200;28;20494;-66
2022/06/06 12:57:03;;;;;;;2.80;2.30;;;28.40;53.00;;;;;;5064766;28;21104;-66
2022/06/06 12:59:47;;;;;;;5.70;2.70;;;28.50;53.80;;;;;;5062620;28;20489;-66
2022/06/06 13:02:40;;;;;;;3.30;1.93;;;28.50;53.30;;;;;;5060952;28;20570;-67
2022/06/06 13:05:19;;;;;;;4.93;2.40;;;28.70;52.80;;;;;;5062055;28;20907;-66
2022/06/06 13:08:12;;;;;;;4.83;2.30;;;28.80;53.20;;;;;;5062707;28;20530;-66
2022/06/06 13:10:50;;;;;;;3.00;2.23;;;28.80;52.00;;;;;;5062180;28;20468;-67
2022/06/06 13:13:57;;;;;;;3.13;2.13;;;28.80;51.70;;;;;;5063119;28;20456;-66
2022/06/06 13:16:45;;;;;;;4.93;2.20;;;28.70;51.60;;;;;;5060872;28;20436;-65
2022/06/06 13:19:26;;;;;;;2.50;1.60;;;28.60;51.80;;;;;;5062411;28;20452;-66
2022/06/06 13:22:02;;;;;;;3.33;2.63;;;28.40;51.60;;;;;;5060807;28;20483;-66
2022/06/06 13:25:18;;;;;;;3.27;2.00;;;28.30;51.60;;;;;;5065141;28;20501;-66
2022/06/06 13:28:00;;;;;;;3.50;2.20;;;28.20;50.50;;;;;;5063583;28;20444;-66
2022/06/06 13:30:33;;;;;;;4.57;2.27;;;28.10;52.20;;;;;;5062520;28;20498;-66
2022/06/06 13:33:16;;;;;;;3.10;2.07;;;28.10;51.60;;;;;;5063208;28;20463;-66
2022/06/06 13:35:58;;;;;;;3.00;2.20;;;27.90;51.40;;;;;;5064219;28;20890;-66
2022/06/06 13:38:54;;;;;;;4.43;2.63;;;27.80;50.10;;;;;;5059401;28;20448;-67
2022/06/06 13:41:36;;;;;;;3.20;2.23;;;27.70;51.20;;;;;;5055802;28;21011;-66
2022/06/06 13:44:15;;;;;;;3.27;2.30;;;27.60;50.60;;;;;;5061288;28;20451;-65
2022/06/06 13:46:57;;;;;;;3.03;1.90;;;27.50;51.70;;;;;;5055430;28;20448;-66
2022/06/06 13:50:00;;;;;;;4.67;2.50;;;27.40;51.50;;;;;;5058381;28;20436;-67
2022/06/06 13:53:04;;;;;;;4.03;2.40;;;27.20;51.90;;;;;;5053241;28;20451;-65
2022/06/06 13:55:33;;;;;;;5.43;2.77;;;27.10;52.90;;;;;;5060865;28;20444;-65
2022/06/06 13:58:24;;;;;;;3.83;2.53;;;27.10;53.80;;;;;;5061683;28;20443;-66
2022/06/06 14:01:06;;;;;;;3.50;2.40;;;27.00;53.70;;;;;;5061015;28;20436;-66
2022/06/06 14:03:53;;;;;;;5.53;2.23;;;27.00;53.20;;;;;;5060936;28;21114;-65
2022/06/06 14:06:53;;;;;;;3.97;1.97;;;26.90;52.80;;;;;;5062526;28;20776;-66
2022/06/06 14:09:38;;;;;;;3.93;2.20;;;26.90;52.20;;;;;;5064575;28;20954;-66
2022/06/06 14:12:24;;;;;;;5.03;2.20;;;26.80;52.30;;;;;;5061666;28;20455;-65
2022/06/06 14:14:54;;;;;;;3.73;1.87;;;26.70;52.70;;;;;;5060420;28;20531;-67
2022/06/06 14:17:30;;;;;;;4.47;1.73;;;26.60;52.70;;;;;;5061422;28;20438;-65
2022/06/06 14:20:06;;;;;;;4.33;2.53;;;26.60;53.20;;;;;;5060141;28;20431;-67
2022/06/06 14:22:37;;;;;;;3.77;2.20;;;26.60;53.20;;;;;;5058884;28;20490;-71
2022/06/06 14:25:08;;;;;;;3.17;2.17;;;26.50;53.30;;;;;;5060903;28;20922;-65